Terminal Aerodrome Forecast
Issued by NWS

Home | Current Version | Previous Version | Graphics & Text | Print | Product List | Glossary On
Versions: 1 2 3 4 5 6 7 8 9 10 11 12 13 14 15 16 17 18 19 20 21
328
FTUS43 KGRB 151723 AAC
TAFAUW
TAF AMD
KAUW 151723Z 1517/1612 31009KT P6SM OVC012
     FM160000 30014G20KT P6SM -SN BKN020
     FM160800 31010KT P6SM BKN040=

USA.gov is the U.S. government's official web portal to all federal, state and local government web resources and services.